createdAt,value
2019-01-24T00:02:24.571Z,24.90
2019-01-24T00:04:54.080Z,22.90
2019-01-24T00:07:23.686Z,22.95
2019-01-24T00:09:53.193Z,22.45
2019-01-24T00:12:22.703Z,23.52
2019-01-24T00:14:52.268Z,25.52
2019-01-24T00:17:21.920Z,23.95
2019-01-24T00:19:51.478Z,26.02
2019-01-24T00:22:20.919Z,23.83
2019-01-24T00:24:50.359Z,25.25
2019-01-24T00:27:20.113Z,22.73
2019-01-24T00:29:49.700Z,24.20
2019-01-24T00:32:19.302Z,24.60
2019-01-24T00:34:49.145Z,23.70
2019-01-24T00:37:20.604Z,25.85
2019-01-24T00:39:50.104Z,24.57
2019-01-24T00:42:19.622Z,24.60
2019-01-24T00:44:49.098Z,23.55
2019-01-24T00:47:18.695Z,25.77
2019-01-24T00:49:48.245Z,24.00
2019-01-24T00:52:18.066Z,25.10
2019-01-24T00:54:51.860Z,24.35
2019-01-24T00:57:21.430Z,23.95
2019-01-24T00:59:51.027Z,25.37
2019-01-24T01:02:22.106Z,23.77
2019-01-24T01:04:51.867Z,25.27
2019-01-24T01:07:21.398Z,23.55
2019-01-24T01:09:50.841Z,24.32
2019-01-24T01:12:20.596Z,24.47
2019-01-24T01:14:50.107Z,25.57
2019-01-24T01:17:19.800Z,26.12
2019-01-24T01:19:49.228Z,24.47
2019-01-24T01:22:18.674Z,26.07
2019-01-24T01:24:48.166Z,23.38
2019-01-24T01:27:17.745Z,23.40
2019-01-24T01:29:47.186Z,23.80
2019-01-24T01:32:16.677Z,24.63
2019-01-24T01:34:46.351Z,23.80
2019-01-24T01:37:15.876Z,24.80
2019-01-24T01:39:45.283Z,25.10
2019-01-24T01:42:14.875Z,23.98
2019-01-24T01:44:45.583Z,22.62
2019-01-24T01:47:19.118Z,20.88
2019-01-24T01:49:48.779Z,25.43
2019-01-24T01:52:18.199Z,20.80
2019-01-24T01:54:47.631Z,23.70
2019-01-24T01:57:18.351Z,21.77
2019-01-24T01:59:50.753Z,19.90
2019-01-24T02:02:25.588Z,21.60
2019-01-24T02:04:55.004Z,21.33
2019-01-24T02:07:30.937Z,19.92
2019-01-24T02:10:07.885Z,21.60
2019-01-24T02:12:37.419Z,24.20
2019-01-24T02:15:08.039Z,25.30
2019-01-24T02:17:39.255Z,23.55
2019-01-24T02:20:11.877Z,24.90
2019-01-24T02:22:57.362Z,23.47
2019-01-24T02:25:31.925Z,27.73
2019-01-24T02:28:11.850Z,27.02
2019-01-24T02:30:45.295Z,25.25
2019-01-24T02:33:17.755Z,24.15
2019-01-24T02:35:50.104Z,23.95
2019-01-24T02:38:22.191Z,24.40
2019-01-24T02:40:56.403Z,25.85
2019-01-24T02:43:25.990Z,23.92
2019-01-24T02:45:58.334Z,26.45
2019-01-24T02:48:35.415Z,23.47
2019-01-24T02:51:09.321Z,24.50
2019-01-24T02:53:43.860Z,24.40
2019-01-24T02:56:13.333Z,23.55
2019-01-24T02:58:49.499Z,24.47
2019-01-24T03:01:24.952Z,24.95
2019-01-24T03:03:54.587Z,26.85
2019-01-24T03:06:25.202Z,26.93
2019-01-24T03:08:59.568Z,26.05
2019-01-24T03:11:31.893Z,26.60
2019-01-24T03:14:05.082Z,26.42
2019-01-24T03:16:34.793Z,26.02
2019-01-24T03:19:11.875Z,27.42
2019-01-24T03:21:44.747Z,26.60
2019-01-24T03:24:14.211Z,24.47
2019-01-24T03:26:43.654Z,24.72
2019-01-24T03:29:18.758Z,25.88
2019-01-24T03:31:49.740Z,25.85
2019-01-24T03:34:19.275Z,26.17
2019-01-24T03:37:01.527Z,25.52
2019-01-24T03:39:32.177Z,27.93
2019-01-24T03:42:08.686Z,28.30
2019-01-24T03:44:38.202Z,26.85
2019-01-24T03:47:07.645Z,27.82
2019-01-24T03:49:40.207Z,26.55
2019-01-24T03:52:12.637Z,27.25
2019-01-24T03:54:42.126Z,28.02
2019-01-24T03:57:11.671Z,25.57
2019-01-24T03:59:45.015Z,28.90
2019-01-24T04:02:14.804Z,26.65
2019-01-24T04:04:44.297Z,26.40
2019-01-24T04:07:16.873Z,28.25
2019-01-24T04:09:46.351Z,27.35
2019-01-24T04:12:15.840Z,26.17
2019-01-24T04:14:45.521Z,27.00
2019-01-24T04:17:14.924Z,27.35
2019-01-24T04:19:44.392Z,30.02
2019-01-24T04:22:13.944Z,30.90
2019-01-24T04:24:43.454Z,28.75
2019-01-24T04:27:12.861Z,29.82
2019-01-24T04:29:42.251Z,27.80
2019-01-24T04:32:11.725Z,26.95
2019-01-24T04:34:41.221Z,28.42
2019-01-24T04:37:10.714Z,23.10
2019-01-24T04:39:40.465Z,23.47
2019-01-24T04:42:09.873Z,21.77
2019-01-24T04:44:39.365Z,23.30
2019-01-24T04:47:08.770Z,25.52
2019-01-24T04:49:38.322Z,24.32
2019-01-24T04:52:07.881Z,24.72
2019-01-24T04:54:37.382Z,26.30
2019-01-24T04:57:06.786Z,25.35
2019-01-24T04:59:36.275Z,24.82
2019-01-24T05:02:05.804Z,27.48
2019-01-24T05:04:35.179Z,27.93
2019-01-24T05:07:04.622Z,29.27
2019-01-24T05:09:34.256Z,29.35
2019-01-24T05:12:03.746Z,26.12
2019-01-24T05:14:33.142Z,23.73
2019-01-24T05:17:02.638Z,24.92
2019-01-24T05:19:35.114Z,24.23
2019-01-24T05:22:04.644Z,25.17
2019-01-24T05:24:34.047Z,23.98
2019-01-24T05:27:03.665Z,23.98
2019-01-24T05:29:33.170Z,24.10
2019-01-24T05:32:05.447Z,26.12
2019-01-24T05:34:37.000Z,27.15
2019-01-24T05:37:06.461Z,27.15
2019-01-24T05:39:35.858Z,26.33
2019-01-24T05:42:05.306Z,26.68
2019-01-24T05:44:36.110Z,25.60
2019-01-24T05:47:05.595Z,25.62
2019-01-24T05:49:35.043Z,27.42
2019-01-24T05:52:04.612Z,29.02
2019-01-24T05:54:34.022Z,30.35
2019-01-24T05:57:03.547Z,26.52
2019-01-24T05:59:32.979Z,28.62
2019-01-24T06:02:02.622Z,29.02
2019-01-24T06:04:32.145Z,29.48
2019-01-24T06:07:01.812Z,30.40
2019-01-24T06:09:31.352Z,27.95
2019-01-24T06:12:00.849Z,30.77
2019-01-24T06:14:30.457Z,30.05
2019-01-24T06:17:00.141Z,28.17
2019-01-24T06:19:31.129Z,32.10
2019-01-24T06:22:00.530Z,29.23
2019-01-24T06:24:30.186Z,29.60
2019-01-24T06:26:59.672Z,30.23
2019-01-24T06:29:29.123Z,29.10
2019-01-24T06:31:58.850Z,29.30
2019-01-24T06:34:28.321Z,28.10
2019-01-24T06:36:57.857Z,28.73
2019-01-24T06:39:27.299Z,28.70
2019-01-24T06:41:56.820Z,29.18
2019-01-24T06:44:26.313Z,29.12
2019-01-24T06:46:56.722Z,27.85
2019-01-24T06:49:26.247Z,27.87
2019-01-24T06:51:55.763Z,28.00
2019-01-24T06:54:25.255Z,28.98
2019-01-24T06:56:54.724Z,31.73
2019-01-24T06:59:24.314Z,28.52
2019-01-24T07:01:53.845Z,30.43
2019-01-24T07:04:27.051Z,29.75
2019-01-24T07:06:56.927Z,28.85
2019-01-24T07:09:26.371Z,32.00
2019-01-24T07:11:55.773Z,31.45
2019-01-24T07:14:25.307Z,29.90
2019-01-24T07:16:54.786Z,29.67
2019-01-24T07:19:24.253Z,30.52
2019-01-24T07:21:53.694Z,30.80
2019-01-24T07:24:23.262Z,31.20
2019-01-24T07:26:52.687Z,32.10
2019-01-24T07:29:22.127Z,30.97
2019-01-24T07:31:51.694Z,30.20
2019-01-24T07:34:24.288Z,31.95
2019-01-24T07:36:53.763Z,31.75
2019-01-24T07:39:26.318Z,29.32
2019-01-24T07:41:55.992Z,31.40
2019-01-24T07:44:25.517Z,28.67
2019-01-24T07:46:55.238Z,33.67
2019-01-24T07:49:24.649Z,32.08
2019-01-24T07:51:54.459Z,33.38
2019-01-24T07:54:23.906Z,31.17
2019-01-24T07:56:53.381Z,30.08
2019-01-24T07:59:24.140Z,30.43
2019-01-24T08:01:53.600Z,31.23
2019-01-24T08:04:22.972Z,32.93
2019-01-24T08:06:52.685Z,29.65
2019-01-24T08:09:22.117Z,31.52
2019-01-24T08:11:51.696Z,29.12
2019-01-24T08:14:21.235Z,28.20
2019-01-24T08:16:51.034Z,31.77
2019-01-24T08:19:21.919Z,29.95
2019-01-24T08:21:51.393Z,28.15
2019-01-24T08:24:22.586Z,27.77
2019-01-24T08:26:52.288Z,26.85
2019-01-24T08:29:21.917Z,26.33
2019-01-24T08:31:51.490Z,26.42
2019-01-24T08:34:21.029Z,22.95
2019-01-24T08:36:50.430Z,25.12
2019-01-24T08:39:19.942Z,25.20
2019-01-24T08:41:49.695Z,24.47
2019-01-24T08:44:19.176Z,22.50
2019-01-24T08:46:48.669Z,22.10
2019-01-24T08:49:18.253Z,20.02
2019-01-24T08:51:47.692Z,15.80
2019-01-24T08:54:17.243Z,14.78
2019-01-24T08:56:47.127Z,16.90
2019-01-24T08:59:16.633Z,15.68
2019-01-24T09:01:46.324Z,18.05
2019-01-24T09:04:15.793Z,15.90
2019-01-24T09:06:45.204Z,18.52
2019-01-24T09:09:14.786Z,16.40
2019-01-24T09:11:46.265Z,18.37
2019-01-24T09:14:15.759Z,18.02
2019-01-24T09:16:45.165Z,18.52
2019-01-24T09:19:14.847Z,17.80
2019-01-24T09:21:47.077Z,17.35
2019-01-24T09:24:20.196Z,17.65
2019-01-24T09:26:49.686Z,18.55
2019-01-24T09:29:19.194Z,17.25
2019-01-24T09:31:48.740Z,15.95
2019-01-24T09:34:18.179Z,17.12
2019-01-24T09:36:47.556Z,18.42
2019-01-24T09:39:16.981Z,16.17
2019-01-24T09:41:46.678Z,19.77
2019-01-24T09:44:16.155Z,13.25
2019-01-24T09:46:45.662Z,12.40
2019-01-24T09:49:15.337Z,12.58
2019-01-24T09:51:44.927Z,12.58
2019-01-24T09:54:14.832Z,14.43
2019-01-24T09:56:46.166Z,12.58
2019-01-24T09:59:17.802Z,13.90
2019-01-24T10:01:47.371Z,14.25
2019-01-24T10:04:17.012Z,15.78
2019-01-24T10:06:46.643Z,15.90
2019-01-24T10:09:16.253Z,16.62
2019-01-24T10:11:45.778Z,16.62
2019-01-24T10:14:15.325Z,15.93
2019-01-24T10:16:44.815Z,15.55
2019-01-24T10:19:14.584Z,17.12
2019-01-24T10:21:44.269Z,16.60
2019-01-24T10:24:13.942Z,16.97
2019-01-24T10:26:43.553Z,16.82
2019-01-24T10:29:13.128Z,19.30
2019-01-24T10:31:42.876Z,15.75
2019-01-24T10:34:12.523Z,17.60
2019-01-24T10:36:43.133Z,16.95
2019-01-24T10:39:12.877Z,16.73
2019-01-24T10:41:42.751Z,18.00
2019-01-24T10:44:12.452Z,19.27
2019-01-24T10:46:43.120Z,22.10
2019-01-24T10:49:12.498Z,18.70
2019-01-24T10:51:41.956Z,19.10
2019-01-24T10:54:11.694Z,15.48
2019-01-24T10:56:41.093Z,17.70
2019-01-24T10:59:14.330Z,16.10
2019-01-24T11:01:43.980Z,20.80
2019-01-24T11:04:13.448Z,16.77
2019-01-24T11:06:42.910Z,16.15
2019-01-24T11:09:12.795Z,16.85
2019-01-24T11:11:43.830Z,18.07
2019-01-24T11:14:13.301Z,16.70
2019-01-24T11:16:42.723Z,16.32
2019-01-24T11:19:13.766Z,16.02
2019-01-24T11:21:44.587Z,17.65
2019-01-24T11:24:14.226Z,15.48
2019-01-24T11:26:43.664Z,17.62
2019-01-24T11:29:13.109Z,15.28
2019-01-24T11:31:44.882Z,15.58
2019-01-24T11:34:15.904Z,16.90
2019-01-24T11:36:45.465Z,17.05
2019-01-24T11:39:19.111Z,16.93
2019-01-24T11:41:48.653Z,17.77
2019-01-24T11:44:21.042Z,16.60
2019-01-24T11:46:51.791Z,14.93
2019-01-24T11:49:21.210Z,16.70
2019-01-24T11:51:50.828Z,18.10
2019-01-24T11:54:22.468Z,19.50
2019-01-24T11:56:51.912Z,16.42
2019-01-24T11:59:21.266Z,15.83
2019-01-24T12:01:50.789Z,15.32
2019-01-24T12:04:20.155Z,15.48
2019-01-24T12:06:49.533Z,15.23
2019-01-24T12:09:18.919Z,12.58
2019-01-24T12:11:50.209Z,13.70
2019-01-24T12:14:19.636Z,14.40
2019-01-24T12:16:49.128Z,13.32
2019-01-24T12:19:18.474Z,13.75
2019-01-24T12:21:48.034Z,13.88
2019-01-24T12:24:17.398Z,14.18
2019-01-24T12:26:46.933Z,12.75
2019-01-24T12:29:16.306Z,13.18
2019-01-24T12:31:45.752Z,11.80
2019-01-24T12:34:15.246Z,13.55
2019-01-24T12:36:44.924Z,12.85
2019-01-24T12:39:18.947Z,13.58
2019-01-24T12:41:48.434Z,12.65
2019-01-24T12:44:17.810Z,13.15
2019-01-24T12:46:47.273Z,13.10
2019-01-24T12:49:16.746Z,12.00
2019-01-24T12:51:46.079Z,13.05
2019-01-24T12:54:15.484Z,12.88
2019-01-24T12:56:44.905Z,12.47
2019-01-24T12:59:14.605Z,12.00
2019-01-24T13:01:43.966Z,12.47
2019-01-24T13:04:13.415Z,11.63
2019-01-24T13:06:42.873Z,12.03
2019-01-24T13:09:12.815Z,13.18
2019-01-24T13:11:42.280Z,13.10
2019-01-24T13:14:12.018Z,11.93
2019-01-24T13:16:41.452Z,12.85
2019-01-24T13:19:10.841Z,11.15
2019-01-24T13:21:40.672Z,13.05
2019-01-24T13:24:10.157Z,14.23
2019-01-24T13:26:39.593Z,12.45
2019-01-24T13:29:10.779Z,12.58
2019-01-24T13:31:40.263Z,13.58
2019-01-24T13:34:09.670Z,12.75
2019-01-24T13:36:39.049Z,13.08
2019-01-24T13:39:11.393Z,12.43
2019-01-24T13:41:42.636Z,12.20
2019-01-24T13:44:12.082Z,11.08
2019-01-24T13:46:43.414Z,13.45
2019-01-24T13:49:12.801Z,12.40
2019-01-24T13:51:42.163Z,12.47
2019-01-24T13:54:11.635Z,12.95
2019-01-24T13:56:41.072Z,11.70
2019-01-24T13:59:10.609Z,13.65
2019-01-24T14:01:40.069Z,13.53
2019-01-24T14:04:32.002Z,13.95
2019-01-24T14:07:01.702Z,11.05
2019-01-24T14:09:31.132Z,11.65
2019-01-24T14:12:00.572Z,11.70
2019-01-24T14:14:30.253Z,11.43
2019-01-24T14:16:59.709Z,12.78
2019-01-24T14:19:29.070Z,11.45
2019-01-24T14:21:58.470Z,11.12
2019-01-24T14:24:28.003Z,11.80
2019-01-24T14:26:57.497Z,12.07
2019-01-24T14:29:26.912Z,11.95
2019-01-24T14:31:56.599Z,11.90
2019-01-24T14:34:26.056Z,11.75
2019-01-24T14:36:58.961Z,11.85
2019-01-24T14:39:28.458Z,13.48
2019-01-24T14:41:57.977Z,12.47
2019-01-24T14:44:29.491Z,12.07
2019-01-24T14:46:59.017Z,13.88
2019-01-24T14:49:28.514Z,13.83
2019-01-24T14:51:58.042Z,13.48
2019-01-24T14:54:27.680Z,12.80
2019-01-24T14:56:57.092Z,14.00
2019-01-24T14:59:26.546Z,13.88
2019-01-24T15:01:56.099Z,12.03
2019-01-24T15:04:25.564Z,13.78
2019-01-24T15:06:54.974Z,14.53
2019-01-24T15:09:24.403Z,14.10
2019-01-24T15:11:54.084Z,14.53
2019-01-24T15:14:26.326Z,13.53
2019-01-24T15:16:56.718Z,13.38
2019-01-24T15:19:26.160Z,12.37
2019-01-24T15:21:55.796Z,13.05
2019-01-24T15:24:25.245Z,14.83
2019-01-24T15:26:54.665Z,13.15
2019-01-24T15:29:24.062Z,12.73
2019-01-24T15:31:53.982Z,14.15
2019-01-24T15:34:24.764Z,12.98
2019-01-24T15:36:54.166Z,13.43
2019-01-24T15:39:23.822Z,15.15
2019-01-24T15:41:53.509Z,13.93
2019-01-24T15:44:22.957Z,15.68
2019-01-24T15:46:52.314Z,15.85
2019-01-24T15:49:21.720Z,16.10
2019-01-24T15:51:51.143Z,16.12
2019-01-24T15:54:20.683Z,16.82
2019-01-24T15:56:50.065Z,17.50
2019-01-24T15:59:19.451Z,17.57
2019-01-24T16:01:48.840Z,18.67
2019-01-24T16:04:19.893Z,16.87
2019-01-24T16:06:49.635Z,17.77
2019-01-24T16:09:19.109Z,16.62
2019-01-24T16:11:48.515Z,16.10
2019-01-24T16:14:18.134Z,18.23
2019-01-24T16:16:47.939Z,17.65
2019-01-24T16:19:17.366Z,18.37
2019-01-24T16:21:46.944Z,15.90
2019-01-24T16:24:16.498Z,17.05
2019-01-24T16:26:49.429Z,19.17
2019-01-24T16:29:18.847Z,18.62
2019-01-24T16:31:48.531Z,17.55
2019-01-24T16:34:17.934Z,17.15
2019-01-24T16:36:47.347Z,16.48
2019-01-24T16:39:16.771Z,17.85
2019-01-24T16:41:46.505Z,17.30
2019-01-24T16:44:15.968Z,17.05
2019-01-24T16:46:45.486Z,17.02
2019-01-24T16:49:15.126Z,14.90
2019-01-24T16:51:44.959Z,14.68
2019-01-24T16:54:16.174Z,16.32
2019-01-24T16:56:45.745Z,15.28
2019-01-24T16:59:15.108Z,14.95
2019-01-24T17:01:44.657Z,14.10
2019-01-24T17:04:14.287Z,15.60
2019-01-24T17:06:43.745Z,14.53
2019-01-24T17:09:13.203Z,16.05
2019-01-24T17:11:42.967Z,15.13
2019-01-24T17:14:12.598Z,14.30
2019-01-24T17:16:42.061Z,15.45
2019-01-24T17:19:11.843Z,14.75
2019-01-24T17:21:41.315Z,14.95
2019-01-24T17:24:11.067Z,14.15
2019-01-24T17:26:40.695Z,13.62
2019-01-24T17:29:10.468Z,16.60
2019-01-24T17:31:39.966Z,14.03
2019-01-24T17:34:09.559Z,15.53
2019-01-24T17:36:39.297Z,15.43
2019-01-24T17:39:11.332Z,15.70
2019-01-24T17:41:40.727Z,14.87
2019-01-24T17:44:10.334Z,15.63
2019-01-24T17:46:39.890Z,14.15
2019-01-24T17:49:10.477Z,13.62
2019-01-24T17:51:39.940Z,16.60
2019-01-24T17:54:09.599Z,15.58
2019-01-24T17:56:41.801Z,13.00
2019-01-24T17:59:11.701Z,13.68
2019-01-24T18:01:41.238Z,13.38
2019-01-24T18:04:10.815Z,13.95
2019-01-24T18:06:40.368Z,13.78
2019-01-24T18:09:09.853Z,14.35
2019-01-24T18:11:39.355Z,15.20
2019-01-24T18:14:08.958Z,14.58
2019-01-24T18:16:38.577Z,16.20
2019-01-24T18:19:07.992Z,15.25
2019-01-24T18:21:37.429Z,12.78
2019-01-24T18:24:07.096Z,13.48
2019-01-24T18:26:36.697Z,13.68
2019-01-24T18:29:06.655Z,13.38
2019-01-24T18:31:36.160Z,14.28
2019-01-24T18:34:05.888Z,13.48
2019-01-24T18:36:35.269Z,14.73
2019-01-24T18:39:09.305Z,13.95
2019-01-24T18:41:38.758Z,15.63
2019-01-24T18:44:08.572Z,13.22
2019-01-24T18:46:38.148Z,14.90
2019-01-24T18:49:08.285Z,13.00
2019-01-24T18:51:37.800Z,15.25
2019-01-24T18:54:07.283Z,13.80
2019-01-24T18:56:36.786Z,15.93
2019-01-24T18:59:06.207Z,13.00
2019-01-24T19:01:35.774Z,13.08
2019-01-24T19:04:05.972Z,13.43
2019-01-24T19:06:35.605Z,15.98
2019-01-24T19:09:08.716Z,14.98
2019-01-24T19:11:38.185Z,13.25
2019-01-24T19:14:08.280Z,15.03
2019-01-24T19:16:40.221Z,13.98
2019-01-24T19:19:09.802Z,13.98
2019-01-24T19:21:39.295Z,13.03
2019-01-24T19:24:09.019Z,13.72
2019-01-24T19:26:38.778Z,13.28
2019-01-24T19:29:08.454Z,13.32
2019-01-24T19:31:38.038Z,13.85
2019-01-24T19:34:07.955Z,13.13
2019-01-24T19:36:37.450Z,13.28
2019-01-24T19:39:09.613Z,14.58
2019-01-24T19:41:39.202Z,12.80
2019-01-24T19:44:15.433Z,12.25
2019-01-24T19:46:40.070Z,13.93
2019-01-24T19:49:10.117Z,12.33
2019-01-24T19:51:42.127Z,11.63
2019-01-24T19:54:18.131Z,15.50
2019-01-24T19:56:47.764Z,13.85
2019-01-24T19:59:17.755Z,13.32
2019-01-24T20:01:47.428Z,14.00
2019-01-24T20:04:17.033Z,13.93
2019-01-24T20:06:46.594Z,13.72
2019-01-24T20:09:16.498Z,13.45
2019-01-24T20:11:46.299Z,11.08
2019-01-24T20:14:16.024Z,11.35
2019-01-24T20:16:45.724Z,11.65
2019-01-24T20:19:15.218Z,13.43
2019-01-24T20:21:44.706Z,10.82
2019-01-24T20:24:15.863Z,13.80
2019-01-24T20:26:47.387Z,12.50
2019-01-24T20:29:17.206Z,12.65
2019-01-24T20:31:46.951Z,11.30
2019-01-24T20:34:17.828Z,12.65
2019-01-24T20:36:47.613Z,13.70
2019-01-24T20:39:17.287Z,12.23
2019-01-24T20:41:46.987Z,11.95
2019-01-24T20:44:16.712Z,12.55
2019-01-24T20:46:47.534Z,12.10
2019-01-24T20:49:17.098Z,11.55
2019-01-24T20:51:49.444Z,12.75
2019-01-24T20:54:20.279Z,12.53
2019-01-24T20:56:50.129Z,12.23
2019-01-24T20:59:19.927Z,11.18
2019-01-24T21:01:49.550Z,12.10
2019-01-24T21:04:19.221Z,11.12
2019-01-24T21:06:48.857Z,11.05
2019-01-24T21:09:18.640Z,10.78
2019-01-24T21:11:48.655Z,11.18
2019-01-24T21:14:18.300Z,12.15
2019-01-24T21:16:48.189Z,11.57
2019-01-24T21:19:17.617Z,12.88
2019-01-24T21:21:47.287Z,11.50
2019-01-24T21:24:16.740Z,11.15
2019-01-24T21:26:46.489Z,12.18
2019-01-24T21:29:16.058Z,11.80
2019-01-24T21:31:45.624Z,12.05
2019-01-24T21:34:15.214Z,12.20
2019-01-24T21:36:46.028Z,10.20
2019-01-24T21:39:21.982Z,11.05
2019-01-24T21:41:47.954Z,12.33
2019-01-24T21:44:17.769Z,10.82
2019-01-24T21:46:47.325Z,9.48
2019-01-24T21:49:16.914Z,11.22
2019-01-24T21:51:46.688Z,11.25
2019-01-24T21:54:16.268Z,11.70
2019-01-24T21:56:45.965Z,10.35
2019-01-24T21:59:15.622Z,10.75
2019-01-24T22:01:46.630Z,11.00
2019-01-24T22:04:16.118Z,11.25
2019-01-24T22:06:45.845Z,11.03
2019-01-24T22:09:15.545Z,10.88
2019-01-24T22:11:45.708Z,11.40
2019-01-24T22:14:15.247Z,10.53
2019-01-24T22:16:44.800Z,10.68
2019-01-24T22:19:14.433Z,10.72
2019-01-24T22:21:44.286Z,9.93
2019-01-24T22:24:13.824Z,10.43
2019-01-24T22:26:43.571Z,11.60
2019-01-24T22:29:16.364Z,9.63
2019-01-24T22:31:45.969Z,9.43
2019-01-24T22:34:16.758Z,10.50
2019-01-24T22:36:46.327Z,10.30
2019-01-24T22:39:16.016Z,10.82
2019-01-24T22:41:45.678Z,10.45
2019-01-24T22:44:15.157Z,9.90
2019-01-24T22:46:45.062Z,10.90
2019-01-24T22:49:14.589Z,11.28
2019-01-24T22:51:46.898Z,12.10
2019-01-24T22:54:16.458Z,10.85
2019-01-24T22:56:46.123Z,11.00
2019-01-24T22:59:15.625Z,11.15
2019-01-24T23:01:51.541Z,11.30
2019-01-24T23:04:25.360Z,11.15
2019-01-24T23:06:54.854Z,11.28
2019-01-24T23:09:26.675Z,10.93
2019-01-24T23:11:55.894Z,11.28
2019-01-24T23:14:27.632Z,10.32
2019-01-24T23:16:57.109Z,10.75
2019-01-24T23:19:26.540Z,11.55
2019-01-24T23:21:55.948Z,10.40
2019-01-24T23:24:27.241Z,10.90
2019-01-24T23:26:59.931Z,11.55
2019-01-24T23:29:29.346Z,10.45
2019-01-24T23:31:58.814Z,11.33
2019-01-24T23:34:28.189Z,11.33
2019-01-24T23:37:00.684Z,10.93
2019-01-24T23:39:33.081Z,11.30
2019-01-24T23:42:02.487Z,11.40
2019-01-24T23:44:31.907Z,10.88
2019-01-24T23:47:01.568Z,10.50
2019-01-24T23:49:31.363Z,10.80
2019-01-24T23:52:00.869Z,10.40
2019-01-24T23:54:30.301Z,12.30
2019-01-24T23:56:59.674Z,11.10
2019-01-24T23:59:30.012Z,11.35
